createdAt,value
2018-10-05T00:00:33.419Z,1017.88
2018-10-05T00:01:33.433Z,1017.89
2018-10-05T00:02:33.447Z,1017.86
2018-10-05T00:03:33.460Z,1017.87
2018-10-05T00:04:33.497Z,1017.86
2018-10-05T00:05:33.487Z,1017.82
2018-10-05T00:06:33.558Z,1017.81
2018-10-05T00:07:33.517Z,1017.78
2018-10-05T00:08:33.529Z,1017.77
2018-10-05T00:09:33.542Z,1017.77
2018-10-05T00:10:33.557Z,1017.75
2018-10-05T00:11:33.571Z,1017.77
2018-10-05T00:12:33.612Z,1017.76
2018-10-05T00:13:33.598Z,1017.78
2018-10-05T00:14:33.613Z,1017.80
2018-10-05T00:15:33.626Z,1017.77
2018-10-05T00:16:33.647Z,1017.74
2018-10-05T00:17:33.657Z,1017.81
2018-10-05T00:18:33.668Z,1017.75
2018-10-05T00:19:33.685Z,1017.77
2018-10-05T00:20:33.740Z,1017.82
2018-10-05T00:21:33.708Z,1017.81
2018-10-05T00:22:33.748Z,1017.84
2018-10-05T00:23:33.737Z,1017.84
2018-10-05T00:24:33.750Z,1017.83
2018-10-05T00:25:33.765Z,1017.83
2018-10-05T00:26:33.776Z,1017.84
2018-10-05T00:27:33.794Z,1017.84
2018-10-05T00:28:33.808Z,1017.86
2018-10-05T00:29:33.820Z,1017.84
2018-10-05T00:30:33.836Z,1017.88
2018-10-05T00:31:33.847Z,1017.83
2018-10-05T00:32:33.956Z,1017.83
2018-10-05T00:33:33.876Z,1017.81
2018-10-05T00:34:33.888Z,1017.78
2018-10-05T00:35:33.906Z,1017.77
2018-10-05T00:36:33.921Z,1017.78
2018-10-05T00:37:33.932Z,1017.76
2018-10-05T00:38:34.029Z,1017.78
2018-10-05T00:39:33.961Z,1017.73
2018-10-05T00:40:33.973Z,1017.75
2018-10-05T00:41:33.986Z,1017.69
2018-10-05T00:42:34.005Z,1017.68
2018-10-05T00:43:34.012Z,1017.65
2018-10-05T00:44:34.029Z,1017.62
2018-10-05T00:45:34.039Z,1017.63
2018-10-05T00:46:34.054Z,1017.65
2018-10-05T00:47:34.067Z,1017.59
2018-10-05T00:48:34.079Z,1017.62
2018-10-05T00:49:34.094Z,1017.60
2018-10-05T00:50:34.108Z,1017.56
2018-10-05T00:51:34.123Z,1017.57
2018-10-05T00:52:34.138Z,1017.57
2018-10-05T00:53:34.164Z,1017.58
2018-10-05T00:54:34.167Z,1017.60
2018-10-05T00:55:34.178Z,1017.55
2018-10-05T00:56:34.192Z,1017.55
2018-10-05T00:57:34.211Z,1017.53
2018-10-05T00:58:34.217Z,1017.56
2018-10-05T00:59:34.236Z,1017.55
2018-10-05T01:00:34.245Z,1017.50
2018-10-05T01:01:34.264Z,1017.53
2018-10-05T01:02:34.273Z,1017.47
2018-10-05T01:03:34.291Z,1017.48
2018-10-05T01:04:34.307Z,1017.44
2018-10-05T01:05:34.313Z,1017.43
2018-10-05T01:06:34.326Z,1017.39
2018-10-05T01:07:34.344Z,1017.38
2018-10-05T01:08:34.359Z,1017.36
2018-10-05T01:09:34.378Z,1017.36
2018-10-05T01:10:34.434Z,1017.34
2018-10-05T01:11:34.459Z,1017.37
2018-10-05T01:12:34.416Z,1017.36
2018-10-05T01:13:34.423Z,1017.33
2018-10-05T01:14:34.438Z,1017.31
2018-10-05T01:15:34.452Z,1017.34
2018-10-05T01:16:34.471Z,1017.31
2018-10-05T01:17:34.480Z,1017.32
2018-10-05T01:18:34.494Z,1017.29
2018-10-05T01:19:34.513Z,1017.29
2018-10-05T01:20:34.521Z,1017.31
2018-10-05T01:21:34.849Z,1017.28
2018-10-05T01:22:34.553Z,1017.25
2018-10-05T01:23:34.563Z,1017.23
2018-10-05T01:24:34.574Z,1017.24
2018-10-05T01:25:34.588Z,1017.24
2018-10-05T01:26:34.602Z,1017.22
2018-10-05T01:27:34.620Z,1017.21
2018-10-05T01:28:34.631Z,1017.20
2018-10-05T01:29:34.648Z,1017.18
2018-10-05T01:30:34.657Z,1017.18
2018-10-05T01:31:34.673Z,1017.15
2018-10-05T01:32:34.685Z,1017.15
2018-10-05T01:33:34.698Z,1017.15
2018-10-05T01:34:34.724Z,1017.14
2018-10-05T01:35:34.728Z,1017.16
2018-10-05T01:36:34.740Z,1017.14
2018-10-05T01:37:34.754Z,1017.17
2018-10-05T01:38:34.773Z,1017.13
2018-10-05T01:39:34.784Z,1017.13
2018-10-05T01:40:34.996Z,1017.15
2018-10-05T01:41:34.818Z,1017.15
2018-10-05T01:42:34.821Z,1017.20
2018-10-05T01:43:34.839Z,1017.16
2018-10-05T01:44:34.849Z,1017.16
2018-10-05T01:45:34.860Z,1017.12
2018-10-05T01:46:34.876Z,1017.17
2018-10-05T01:47:34.890Z,1017.10
2018-10-05T01:48:34.904Z,1017.14
2018-10-05T01:49:34.918Z,1017.13
2018-10-05T01:50:34.931Z,1017.09
2018-10-05T01:51:34.945Z,1017.08
2018-10-05T01:52:34.973Z,1017.09
2018-10-05T01:53:34.974Z,1017.07
2018-10-05T01:54:34.993Z,1017.10
2018-10-05T01:55:35.000Z,1017.11
2018-10-05T01:56:35.013Z,1017.06
2018-10-05T01:57:35.026Z,1017.04
2018-10-05T01:58:35.041Z,1017.01
2018-10-05T01:59:35.055Z,1017.03
2018-10-05T02:00:35.074Z,1017.07
2018-10-05T02:01:35.080Z,1017.05
2018-10-05T02:02:35.128Z,1017.00
2018-10-05T02:03:35.111Z,1017.00
2018-10-05T02:04:35.127Z,1017.03
2018-10-05T02:05:35.136Z,1017.02
2018-10-05T02:06:35.150Z,1017.02
2018-10-05T02:07:35.169Z,1017.03
2018-10-05T02:08:35.178Z,1016.98
2018-10-05T02:09:35.193Z,1016.96
2018-10-05T02:10:35.204Z,1016.98
2018-10-05T02:11:35.217Z,1016.99
2018-10-05T02:12:35.233Z,1016.99
2018-10-05T02:13:35.447Z,1017.01
2018-10-05T02:14:35.276Z,1016.98
2018-10-05T02:15:35.272Z,1016.99
2018-10-05T02:16:35.292Z,1016.97
2018-10-05T02:17:35.299Z,1016.94
2018-10-05T02:18:35.312Z,1016.92
2018-10-05T02:19:35.327Z,1016.93
2018-10-05T02:20:35.342Z,1016.92
2018-10-05T02:21:35.353Z,1016.93
2018-10-05T02:22:35.367Z,1016.89
2018-10-05T02:23:35.388Z,1016.90
2018-10-05T02:24:35.399Z,1016.86
2018-10-05T02:25:35.408Z,1016.88
2018-10-05T02:26:35.421Z,1016.85
2018-10-05T02:27:35.505Z,1016.84
2018-10-05T02:28:35.449Z,1016.83
2018-10-05T02:29:35.463Z,1016.84
2018-10-05T02:30:35.477Z,1016.83
2018-10-05T02:31:35.491Z,1016.82
2018-10-05T02:32:35.508Z,1016.76
2018-10-05T02:33:35.519Z,1016.77
2018-10-05T02:34:35.534Z,1016.75
2018-10-05T02:35:35.546Z,1016.75
2018-10-05T02:36:35.917Z,1016.75
2018-10-05T02:37:35.571Z,1016.74
2018-10-05T02:38:35.585Z,1016.70
2018-10-05T02:39:35.600Z,1016.69
2018-10-05T02:40:35.613Z,1016.69
2018-10-05T02:41:35.641Z,1016.72
2018-10-05T02:42:35.845Z,1016.68
2018-10-05T02:43:35.663Z,1016.69
2018-10-05T02:44:35.667Z,1016.70
2018-10-05T02:45:35.680Z,1016.65
2018-10-05T02:46:35.694Z,1016.65
2018-10-05T02:47:35.706Z,1016.68
2018-10-05T02:48:35.723Z,1016.67
2018-10-05T02:49:35.733Z,1016.66
2018-10-05T02:50:35.747Z,1016.62
2018-10-05T02:51:35.761Z,1016.66
2018-10-05T02:52:35.774Z,1016.68
2018-10-05T02:53:35.790Z,1016.66
2018-10-05T02:54:35.818Z,1016.66
2018-10-05T02:55:35.816Z,1016.63
2018-10-05T02:56:35.829Z,1016.62
2018-10-05T02:57:35.842Z,1016.64
2018-10-05T02:58:35.856Z,1016.59
2018-10-05T02:59:35.868Z,1016.60
2018-10-05T03:00:35.885Z,1016.61
2018-10-05T03:01:35.900Z,1016.58
2018-10-05T03:02:35.910Z,1016.56
2018-10-05T03:03:35.924Z,1016.56
2018-10-05T03:04:35.936Z,1016.59
2018-10-05T03:05:35.950Z,1016.55
2018-10-05T03:06:35.965Z,1016.53
2018-10-05T03:07:35.983Z,1016.52
2018-10-05T03:08:35.991Z,1016.49
2018-10-05T03:09:36.007Z,1016.52
2018-10-05T03:10:36.016Z,1016.52
2018-10-05T03:11:36.036Z,1016.52
2018-10-05T03:12:36.047Z,1016.51
2018-10-05T03:13:36.057Z,1016.51
2018-10-05T03:14:36.073Z,1016.49
2018-10-05T03:15:36.089Z,1016.49
2018-10-05T03:16:36.184Z,1016.47
2018-10-05T03:17:36.109Z,1016.47
2018-10-05T03:18:36.125Z,1016.43
2018-10-05T03:19:36.140Z,1016.43
2018-10-05T03:20:36.152Z,1016.46
2018-10-05T03:21:36.165Z,1016.40
2018-10-05T03:22:36.189Z,1016.40
2018-10-05T03:23:36.192Z,1016.43
2018-10-05T03:24:36.211Z,1016.39
2018-10-05T03:25:36.227Z,1016.38
2018-10-05T03:26:36.245Z,1016.36
2018-10-05T03:27:36.246Z,1016.32
2018-10-05T03:28:36.259Z,1016.34
2018-10-05T03:29:36.275Z,1016.30
2018-10-05T03:30:36.288Z,1016.27
2018-10-05T03:31:36.300Z,1016.26
2018-10-05T03:32:36.337Z,1016.26
2018-10-05T03:33:36.326Z,1016.26
2018-10-05T03:34:36.342Z,1016.25
2018-10-05T03:35:36.356Z,1016.26
2018-10-05T03:36:36.375Z,1016.25
2018-10-05T03:37:36.381Z,1016.24
2018-10-05T03:38:36.446Z,1016.24
2018-10-05T03:39:36.417Z,1016.24
2018-10-05T03:40:36.421Z,1016.19
2018-10-05T03:41:36.436Z,1016.24
2018-10-05T03:42:36.449Z,1016.20
2018-10-05T03:43:36.463Z,1016.19
2018-10-05T03:44:36.479Z,1016.20
2018-10-05T03:45:36.488Z,1016.20
2018-10-05T03:46:36.502Z,1016.19
2018-10-05T03:47:36.527Z,1016.18
2018-10-05T03:48:36.529Z,1016.16
2018-10-05T03:49:36.549Z,1016.14
2018-10-05T03:50:36.560Z,1016.17
2018-10-05T03:51:36.571Z,1016.17
2018-10-05T03:52:36.583Z,1016.17
2018-10-05T03:53:36.599Z,1016.18
2018-10-05T03:54:36.619Z,1016.17
2018-10-05T03:55:36.629Z,1016.16
2018-10-05T03:56:36.638Z,1016.16
2018-10-05T03:57:36.654Z,1016.17
2018-10-05T03:58:36.664Z,1016.17
2018-10-05T03:59:36.680Z,1016.13
2018-10-05T04:00:36.691Z,1016.15
2018-10-05T04:01:36.705Z,1016.15
2018-10-05T04:02:36.718Z,1016.13
2018-10-05T04:03:36.751Z,1016.10
2018-10-05T04:04:36.743Z,1016.11
2018-10-05T04:05:36.757Z,1016.11
2018-10-05T04:06:36.773Z,1016.13
2018-10-05T04:07:36.784Z,1016.13
2018-10-05T04:08:36.798Z,1016.12
2018-10-05T04:09:36.817Z,1016.08
2018-10-05T04:10:36.825Z,1016.07
2018-10-05T04:11:36.838Z,1016.10
2018-10-05T04:12:36.854Z,1016.06
2018-10-05T04:13:36.864Z,1016.04
2018-10-05T04:14:36.877Z,1016.08
2018-10-05T04:15:36.891Z,1016.05
2018-10-05T04:16:36.904Z,1016.09
2018-10-05T04:17:36.926Z,1016.05
2018-10-05T04:18:36.936Z,1016.05
2018-10-05T04:19:36.944Z,1016.07
2018-10-05T04:20:36.957Z,1016.04
2018-10-05T04:21:39.134Z,1016.02
2018-10-05T04:22:36.984Z,1016.06
2018-10-05T04:23:37.000Z,1016.03
2018-10-05T04:24:37.016Z,1016.02
2018-10-05T04:25:37.029Z,1016.06
2018-10-05T04:26:37.046Z,1016.02
2018-10-05T04:27:37.054Z,1016.00
2018-10-05T04:28:37.067Z,1016.01
2018-10-05T04:29:37.081Z,1016.03
2018-10-05T04:30:37.284Z,1016.01
2018-10-05T04:31:37.787Z,1015.95
2018-10-05T04:32:37.343Z,1015.99
2018-10-05T04:33:37.135Z,1015.98
2018-10-05T04:34:37.163Z,1016.00
2018-10-05T04:35:37.258Z,1015.97
2018-10-05T04:36:37.604Z,1015.96
2018-10-05T04:37:37.254Z,1015.93
2018-10-05T04:38:37.197Z,1015.93
2018-10-05T04:39:37.213Z,1015.93
2018-10-05T04:40:37.227Z,1015.94
2018-10-05T04:41:37.239Z,1015.93
2018-10-05T04:42:37.261Z,1015.92
2018-10-05T04:43:37.273Z,1015.93
2018-10-05T04:44:37.426Z,1015.88
2018-10-05T04:45:37.472Z,1015.86
2018-10-05T04:46:37.307Z,1015.84
2018-10-05T04:47:37.830Z,1015.84
2018-10-05T04:48:37.337Z,1015.83
2018-10-05T04:49:37.434Z,1015.85
2018-10-05T04:50:37.643Z,1015.83
2018-10-05T04:51:37.970Z,1015.86
2018-10-05T04:52:37.455Z,1015.87
2018-10-05T04:53:38.482Z,1015.85
2018-10-05T04:54:37.514Z,1015.84
2018-10-05T04:55:37.477Z,1015.86
2018-10-05T04:56:37.620Z,1015.85
2018-10-05T04:57:37.527Z,1015.86
2018-10-05T04:58:37.522Z,1015.86
2018-10-05T04:59:37.498Z,1015.87
2018-10-05T05:00:37.496Z,1015.84
2018-10-05T05:01:37.568Z,1015.86
2018-10-05T05:02:37.520Z,1015.84
2018-10-05T05:03:37.624Z,1015.83
2018-10-05T05:04:37.565Z,1015.82
2018-10-05T05:05:37.565Z,1015.81
2018-10-05T05:06:37.573Z,1015.80
2018-10-05T05:07:37.585Z,1015.81
2018-10-05T05:08:37.597Z,1015.78
2018-10-05T05:09:37.616Z,1015.79
2018-10-05T05:10:37.624Z,1015.76
2018-10-05T05:11:37.637Z,1015.76
2018-10-05T05:12:37.651Z,1015.78
2018-10-05T05:13:37.663Z,1015.73
2018-10-05T05:14:37.680Z,1015.78
2018-10-05T05:15:37.691Z,1015.79
2018-10-05T05:16:37.704Z,1015.79
2018-10-05T05:17:37.715Z,1015.78
2018-10-05T05:18:37.730Z,1015.78
2018-10-05T05:19:37.760Z,1015.78
2018-10-05T05:20:37.769Z,1015.78
2018-10-05T05:21:37.772Z,1015.79
2018-10-05T05:22:37.804Z,1015.78
2018-10-05T05:23:37.795Z,1015.76
2018-10-05T05:24:37.810Z,1015.77
2018-10-05T05:25:38.192Z,1015.77
2018-10-05T05:26:37.837Z,1015.77
2018-10-05T05:27:37.952Z,1015.71
2018-10-05T05:28:37.868Z,1015.73
2018-10-05T05:29:37.879Z,1015.77
2018-10-05T05:30:37.901Z,1015.77
2018-10-05T05:31:37.903Z,1015.78
2018-10-05T05:32:37.914Z,1015.77
2018-10-05T05:33:38.023Z,1015.76
2018-10-05T05:34:37.942Z,1015.79
2018-10-05T05:35:37.958Z,1015.78
2018-10-05T05:36:37.979Z,1015.80
2018-10-05T05:37:38.286Z,1015.76
2018-10-05T05:38:38.002Z,1015.80
2018-10-05T05:39:38.681Z,1015.72
2018-10-05T05:40:38.024Z,1015.78
2018-10-05T05:41:38.045Z,1015.76
2018-10-05T05:42:38.053Z,1015.74
2018-10-05T05:43:38.069Z,1015.78
2018-10-05T05:44:38.085Z,1015.74
2018-10-05T05:45:38.090Z,1015.76
2018-10-05T05:46:38.146Z,1015.74
2018-10-05T05:47:38.258Z,1015.75
2018-10-05T05:48:38.360Z,1015.78
2018-10-05T05:49:39.507Z,1015.73
2018-10-05T05:50:38.213Z,1015.74
2018-10-05T05:51:38.199Z,1015.74
2018-10-05T05:52:38.715Z,1015.74
2018-10-05T05:53:38.211Z,1015.73
2018-10-05T05:54:38.440Z,1015.74
2018-10-05T05:55:38.542Z,1015.75
2018-10-05T05:56:38.235Z,1015.76
2018-10-05T05:57:38.261Z,1015.75
2018-10-05T05:58:40.141Z,1015.71
2018-10-05T05:59:39.553Z,1015.72
2018-10-05T06:00:38.295Z,1015.74
2018-10-05T06:02:40.085Z,1015.71
2018-10-05T06:03:38.331Z,1015.70
2018-10-05T06:04:38.342Z,1015.76
2018-10-05T06:05:38.350Z,1015.71
2018-10-05T06:06:38.361Z,1015.72
2018-10-05T06:07:38.382Z,1015.72
2018-10-05T06:08:38.541Z,1015.74
2018-10-05T06:09:38.944Z,1015.72
2018-10-05T06:10:38.992Z,1015.69
2018-10-05T06:11:40.793Z,1015.69
2018-10-05T06:12:38.465Z,1015.74
2018-10-05T06:13:38.456Z,1015.70
2018-10-05T06:14:38.468Z,1015.69
2018-10-05T06:15:38.488Z,1015.69
2018-10-05T06:16:38.497Z,1015.69
2018-10-05T06:17:38.510Z,1015.66
2018-10-05T06:18:38.522Z,1015.69
2018-10-05T06:19:38.550Z,1015.65
2018-10-05T06:20:38.559Z,1015.71
2018-10-05T06:21:38.655Z,1015.65
2018-10-05T06:22:38.650Z,1015.71
2018-10-05T06:23:38.588Z,1015.68
2018-10-05T06:24:38.604Z,1015.68
2018-10-05T06:25:38.619Z,1015.67
2018-10-05T06:26:38.669Z,1015.69
2018-10-05T06:27:38.645Z,1015.71
2018-10-05T06:28:38.659Z,1015.70
2018-10-05T06:29:38.668Z,1015.69
2018-10-05T06:30:38.764Z,1015.68
2018-10-05T06:31:38.696Z,1015.74
2018-10-05T06:32:38.766Z,1015.74
2018-10-05T06:33:38.724Z,1015.74
2018-10-05T06:34:39.888Z,1015.72
2018-10-05T06:35:38.748Z,1015.79
2018-10-05T06:36:38.764Z,1015.74
2018-10-05T06:37:38.785Z,1015.75
2018-10-05T06:38:38.792Z,1015.76
2018-10-05T06:39:38.805Z,1015.72
2018-10-05T06:40:38.817Z,1015.77
2018-10-05T06:41:38.845Z,1015.80
2018-10-05T06:42:38.931Z,1015.78
2018-10-05T06:43:38.858Z,1015.80
2018-10-05T06:44:38.870Z,1015.82
2018-10-05T06:45:39.037Z,1015.74
2018-10-05T06:46:38.899Z,1015.81
2018-10-05T06:47:38.911Z,1015.83
2018-10-05T06:48:38.928Z,1015.79
2018-10-05T06:49:38.938Z,1015.80
2018-10-05T06:50:38.951Z,1015.79
2018-10-05T06:51:38.970Z,1015.79
2018-10-05T06:52:39.005Z,1015.80
2018-10-05T06:53:39.144Z,1015.79
2018-10-05T06:54:39.005Z,1015.79
2018-10-05T06:55:39.030Z,1015.81
2018-10-05T06:56:39.083Z,1015.79
2018-10-05T06:57:39.046Z,1015.83
2018-10-05T06:58:39.066Z,1015.79
2018-10-05T06:59:39.077Z,1015.80
2018-10-05T07:00:39.102Z,1015.79
2018-10-05T07:01:39.167Z,1015.79
2018-10-05T07:02:39.115Z,1015.76
2018-10-05T07:03:39.171Z,1015.79
2018-10-05T07:04:39.157Z,1015.79
2018-10-05T07:05:39.164Z,1015.77
2018-10-05T07:06:39.175Z,1015.79
2018-10-05T07:07:39.298Z,1015.82
2018-10-05T07:08:39.199Z,1015.80
2018-10-05T07:09:39.207Z,1015.79
2018-10-05T07:10:39.322Z,1015.83
2018-10-05T07:11:39.239Z,1015.82
2018-10-05T07:12:39.263Z,1015.77
2018-10-05T07:13:39.274Z,1015.79
2018-10-05T07:14:39.292Z,1015.76
2018-10-05T07:15:39.351Z,1015.74
2018-10-05T07:16:39.307Z,1015.77
2018-10-05T07:17:39.320Z,1015.74
2018-10-05T07:18:39.357Z,1015.71
2018-10-05T07:19:39.346Z,1015.69
2018-10-05T07:20:39.362Z,1015.71
2018-10-05T07:21:39.374Z,1015.70
2018-10-05T07:22:39.393Z,1015.65
2018-10-05T07:23:39.401Z,1015.68
2018-10-05T07:24:39.430Z,1015.67
2018-10-05T07:25:39.428Z,1015.65
2018-10-05T07:26:39.441Z,1015.62
2018-10-05T07:27:39.473Z,1015.65
2018-10-05T07:28:39.509Z,1015.61
2018-10-05T07:29:39.493Z,1015.64
2018-10-05T07:30:39.495Z,1015.57
2018-10-05T07:31:39.523Z,1015.59
2018-10-05T07:32:39.536Z,1015.59
2018-10-05T07:33:39.558Z,1015.56
2018-10-05T07:34:39.577Z,1015.57
2018-10-05T07:35:39.570Z,1015.59
2018-10-05T07:36:39.584Z,1015.53
2018-10-05T07:37:39.611Z,1015.60
2018-10-05T07:38:39.622Z,1015.57
2018-10-05T07:39:39.622Z,1015.60
2018-10-05T07:40:39.633Z,1015.63
2018-10-05T07:41:40.195Z,1015.62
2018-10-05T07:42:39.663Z,1015.62
2018-10-05T07:43:39.678Z,1015.62
2018-10-05T07:44:39.691Z,1015.60
2018-10-05T07:45:39.703Z,1015.62
2018-10-05T07:46:39.737Z,1015.65
2018-10-05T07:47:40.724Z,1015.61
2018-10-05T07:48:39.754Z,1015.63
2018-10-05T07:49:39.760Z,1015.61
2018-10-05T07:50:39.775Z,1015.63
2018-10-05T07:51:39.808Z,1015.57
2018-10-05T07:52:39.801Z,1015.59
2018-10-05T07:53:39.821Z,1015.59
2018-10-05T07:54:39.841Z,1015.58
2018-10-05T07:55:39.842Z,1015.55
2018-10-05T07:56:39.858Z,1015.57
2018-10-05T07:57:40.079Z,1015.57
2018-10-05T07:58:39.883Z,1015.55
2018-10-05T07:59:39.899Z,1015.60
2018-10-05T08:00:39.911Z,1015.59
2018-10-05T08:01:39.924Z,1015.58
2018-10-05T08:02:40.019Z,1015.59
2018-10-05T08:03:39.953Z,1015.57
2018-10-05T08:04:40.068Z,1015.56
2018-10-05T08:05:39.981Z,1015.59
2018-10-05T08:06:39.999Z,1015.54
2018-10-05T08:07:40.009Z,1015.59
2018-10-05T08:08:40.026Z,1015.58
2018-10-05T08:09:40.083Z,1015.56
2018-10-05T08:10:40.114Z,1015.56
2018-10-05T08:11:40.073Z,1015.56
2018-10-05T08:12:40.076Z,1015.58
2018-10-05T08:13:40.103Z,1015.54
2018-10-05T08:14:40.104Z,1015.52
2018-10-05T08:15:40.115Z,1015.54
2018-10-05T08:16:40.131Z,1015.52
2018-10-05T08:17:40.152Z,1015.54
2018-10-05T08:18:40.161Z,1015.55
2018-10-05T08:19:40.179Z,1015.52
2018-10-05T08:20:40.188Z,1015.52
2018-10-05T08:21:40.281Z,1015.51
2018-10-05T08:22:40.268Z,1015.48
2018-10-05T08:23:40.229Z,1015.48
2018-10-05T08:24:40.378Z,1015.44
2018-10-05T08:25:40.257Z,1015.46
2018-10-05T08:26:40.273Z,1015.47
2018-10-05T08:27:40.291Z,1015.47
2018-10-05T08:28:40.305Z,1015.43
2018-10-05T08:29:40.314Z,1015.45
2018-10-05T08:30:40.329Z,1015.41
2018-10-05T08:31:40.346Z,1015.41
2018-10-05T08:32:40.369Z,1015.41
2018-10-05T08:33:40.371Z,1015.40
2018-10-05T08:34:40.458Z,1015.43
2018-10-05T08:35:40.404Z,1015.40
2018-10-05T08:36:40.414Z,1015.38
2018-10-05T08:37:40.437Z,1015.38
2018-10-05T08:38:40.450Z,1015.39
2018-10-05T08:39:40.534Z,1015.36
2018-10-05T08:40:40.478Z,1015.36
2018-10-05T08:41:40.496Z,1015.33
2018-10-05T08:42:40.500Z,1015.33
2018-10-05T08:43:40.515Z,1015.32
2018-10-05T08:44:40.615Z,1015.27
2018-10-05T08:45:40.543Z,1015.27
2018-10-05T08:46:40.555Z,1015.29
2018-10-05T08:47:40.571Z,1015.28
2018-10-05T08:48:40.593Z,1015.32
2018-10-05T08:49:40.601Z,1015.29
2018-10-05T08:50:40.614Z,1015.27
2018-10-05T08:51:40.838Z,1015.26
2018-10-05T08:52:40.643Z,1015.23
2018-10-05T08:53:40.661Z,1015.23
2018-10-05T08:54:40.671Z,1015.22
2018-10-05T08:55:40.684Z,1015.22
2018-10-05T08:56:40.707Z,1015.21
2018-10-05T08:57:40.734Z,1015.20
2018-10-05T08:58:40.732Z,1015.20
2018-10-05T08:59:40.749Z,1015.16
2018-10-05T09:00:40.762Z,1015.19
2018-10-05T09:01:40.778Z,1015.22
2018-10-05T09:02:40.792Z,1015.19
2018-10-05T09:03:40.802Z,1015.18
2018-10-05T09:04:40.817Z,1015.16
2018-10-05T09:05:40.864Z,1015.12
2018-10-05T09:06:40.843Z,1015.12
2018-10-05T09:07:40.874Z,1015.12
2018-10-05T09:08:40.877Z,1015.11
2018-10-05T09:09:40.887Z,1015.12
2018-10-05T09:10:40.902Z,1015.08
2018-10-05T09:11:40.936Z,1015.08
2018-10-05T09:12:41.050Z,1015.06
2018-10-05T09:13:41.343Z,1015.07
2018-10-05T09:14:41.161Z,1015.07
2018-10-05T09:15:40.978Z,1015.08
2018-10-05T09:16:40.990Z,1015.04
2018-10-05T09:17:41.079Z,1015.07
2018-10-05T09:18:42.139Z,1015.10
2018-10-05T09:19:42.072Z,1014.99
2018-10-05T09:20:41.503Z,1015.03
2018-10-05T09:21:41.077Z,1015.05
2018-10-05T09:22:41.076Z,1015.02
2018-10-05T09:23:41.092Z,1015.05
2018-10-05T09:24:41.105Z,1015.03
2018-10-05T09:25:41.120Z,1015.05
2018-10-05T09:26:41.134Z,1015.01
2018-10-05T09:27:41.150Z,1014.97
2018-10-05T09:28:41.167Z,1014.98
2018-10-05T09:29:41.177Z,1014.98
2018-10-05T09:30:41.209Z,1014.99
2018-10-05T09:31:41.207Z,1014.98
2018-10-05T09:32:41.221Z,1014.96
2018-10-05T09:33:41.235Z,1014.91
2018-10-05T09:34:41.265Z,1014.89
2018-10-05T09:35:41.266Z,1014.87
2018-10-05T09:36:41.280Z,1014.87
2018-10-05T09:37:41.398Z,1014.86
2018-10-05T09:38:41.309Z,1014.88
2018-10-05T09:39:41.324Z,1014.85
2018-10-05T09:40:41.338Z,1014.83
2018-10-05T09:41:41.371Z,1014.83
2018-10-05T09:42:41.374Z,1014.83
2018-10-05T09:43:41.383Z,1014.80
2018-10-05T09:44:41.444Z,1014.79
2018-10-05T09:45:41.412Z,1014.74
2018-10-05T09:46:41.427Z,1014.70
2018-10-05T09:47:41.449Z,1014.72
2018-10-05T09:48:41.456Z,1014.68
2018-10-05T09:49:41.470Z,1014.69
2018-10-05T09:50:41.488Z,1014.70
2018-10-05T09:51:42.417Z,1014.62
2018-10-05T09:52:41.584Z,1014.60
2018-10-05T09:53:41.529Z,1014.59
2018-10-05T09:54:41.850Z,1014.64
2018-10-05T09:55:41.563Z,1014.59
2018-10-05T09:56:41.584Z,1014.56
2018-10-05T09:57:41.593Z,1014.52
2018-10-05T09:58:41.608Z,1014.53
2018-10-05T09:59:41.674Z,1014.48
2018-10-05T10:00:41.655Z,1014.50
2018-10-05T10:01:41.648Z,1014.46
2018-10-05T10:02:41.662Z,1014.42
2018-10-05T10:03:41.691Z,1014.40
2018-10-05T10:04:41.692Z,1014.42
2018-10-05T10:05:41.706Z,1014.38
2018-10-05T10:06:41.728Z,1014.33
2018-10-05T10:07:41.737Z,1014.35
2018-10-05T10:08:41.756Z,1014.34
2018-10-05T10:09:41.779Z,1014.30
2018-10-05T10:10:41.783Z,1014.34
2018-10-05T10:11:41.798Z,1014.29
2018-10-05T10:12:41.813Z,1014.25
2018-10-05T10:13:41.869Z,1014.26
2018-10-05T10:14:41.842Z,1014.24
2018-10-05T10:15:41.855Z,1014.23
2018-10-05T10:16:41.887Z,1014.21
2018-10-05T10:17:41.886Z,1014.18
2018-10-05T10:18:41.901Z,1014.20
2018-10-05T10:19:41.916Z,1014.16
2018-10-05T10:20:41.931Z,1014.13
2018-10-05T10:21:41.947Z,1014.12
2018-10-05T10:22:42.190Z,1014.10
2018-10-05T10:23:41.987Z,1014.11
2018-10-05T10:24:41.993Z,1014.07
2018-10-05T10:25:42.015Z,1014.07
2018-10-05T10:26:42.025Z,1014.06
2018-10-05T10:27:42.052Z,1014.08
2018-10-05T10:28:42.157Z,1014.12
2018-10-05T10:29:42.166Z,1014.07
2018-10-05T10:30:42.097Z,1014.11
2018-10-05T10:31:42.098Z,1014.07
2018-10-05T10:32:42.112Z,1014.13
2018-10-05T10:33:42.162Z,1014.10
2018-10-05T10:34:42.156Z,1014.10
2018-10-05T10:35:42.156Z,1014.07
2018-10-05T10:36:42.213Z,1014.08
2018-10-05T10:37:42.186Z,1014.05
2018-10-05T10:38:42.224Z,1014.06
2018-10-05T10:39:42.217Z,1014.01
2018-10-05T10:40:42.234Z,1014.01
2018-10-05T10:41:42.249Z,1014.00
2018-10-05T10:42:42.327Z,1013.96
2018-10-05T10:43:42.337Z,1013.98
2018-10-05T10:44:42.344Z,1013.92
2018-10-05T10:45:42.306Z,1013.95
2018-10-05T10:46:42.328Z,1013.90
2018-10-05T10:47:42.337Z,1013.87
2018-10-05T10:48:42.353Z,1013.86
2018-10-05T10:49:42.422Z,1013.83
2018-10-05T10:50:42.391Z,1013.80
2018-10-05T10:51:42.397Z,1013.77
2018-10-05T10:52:42.433Z,1013.80
2018-10-05T10:53:42.429Z,1013.76
2018-10-05T10:54:42.442Z,1013.74
2018-10-05T10:55:42.457Z,1013.71
2018-10-05T10:56:42.544Z,1013.67
2018-10-05T10:57:42.490Z,1013.64
2018-10-05T10:58:42.503Z,1013.68
2018-10-05T10:59:42.518Z,1013.66
2018-10-05T11:00:42.541Z,1013.67
2018-10-05T11:01:42.548Z,1013.70
2018-10-05T11:02:42.578Z,1013.65
2018-10-05T11:03:42.578Z,1013.68
2018-10-05T11:04:42.640Z,1013.63
2018-10-05T11:05:42.617Z,1013.62
2018-10-05T11:06:42.625Z,1013.58
2018-10-05T11:07:42.639Z,1013.60
2018-10-05T11:08:42.654Z,1013.60
2018-10-05T11:09:42.669Z,1013.59
2018-10-05T11:10:42.691Z,1013.55
2018-10-05T11:11:42.700Z,1013.56
2018-10-05T11:12:42.738Z,1013.52
2018-10-05T11:13:42.733Z,1013.50
2018-10-05T11:14:42.746Z,1013.49
2018-10-05T11:15:42.762Z,1013.52
2018-10-05T11:16:42.777Z,1013.50
2018-10-05T11:17:42.794Z,1013.49
2018-10-05T11:18:42.811Z,1013.48
2018-10-05T11:19:42.823Z,1013.40
2018-10-05T11:20:42.845Z,1013.42
2018-10-05T11:21:42.853Z,1013.45
2018-10-05T11:22:42.865Z,1013.46
2018-10-05T11:23:42.885Z,1013.42
2018-10-05T11:24:42.897Z,1013.41
2018-10-05T11:25:42.913Z,1013.34
2018-10-05T11:26:42.936Z,1013.35
2018-10-05T11:27:42.946Z,1013.35
2018-10-05T11:28:43.270Z,1013.31
2018-10-05T11:29:43.046Z,1013.28
2018-10-05T11:30:43.006Z,1013.25
2018-10-05T11:31:43.008Z,1013.19
2018-10-05T11:32:43.021Z,1013.15
2018-10-05T11:33:43.046Z,1013.13
2018-10-05T11:34:43.052Z,1013.12
2018-10-05T11:35:43.065Z,1013.09
2018-10-05T11:36:43.083Z,1013.04
2018-10-05T11:37:43.099Z,1013.03
2018-10-05T11:38:43.111Z,1012.99
2018-10-05T11:39:43.128Z,1012.98
2018-10-05T11:40:43.162Z,1012.95
2018-10-05T11:41:43.158Z,1012.95
2018-10-05T11:42:43.176Z,1012.92
2018-10-05T11:43:43.188Z,1012.88
2018-10-05T11:44:43.205Z,1012.86
2018-10-05T11:45:43.218Z,1012.86
2018-10-05T11:46:43.242Z,1012.84
2018-10-05T11:47:43.291Z,1012.83
2018-10-05T11:48:43.266Z,1012.80
2018-10-05T11:49:43.293Z,1012.81
2018-10-05T11:50:43.295Z,1012.75
2018-10-05T11:51:43.312Z,1012.78
2018-10-05T11:52:43.329Z,1012.76
2018-10-05T11:53:43.540Z,1012.76
2018-10-05T11:54:43.360Z,1012.71
2018-10-05T11:55:43.374Z,1012.73
2018-10-05T11:56:43.406Z,1012.68
2018-10-05T11:57:43.405Z,1012.69
2018-10-05T11:58:43.419Z,1012.66
2018-10-05T11:59:43.487Z,1012.68
2018-10-05T12:00:44.819Z,1012.66
2018-10-05T12:01:43.464Z,1012.61
2018-10-05T12:02:43.482Z,1012.60
2018-10-05T12:03:43.497Z,1012.61
2018-10-05T12:04:43.515Z,1012.57
2018-10-05T12:05:43.578Z,1012.56
2018-10-05T12:06:43.600Z,1012.52